createdAt,value
2023-08-09T00:01:07.799Z,18.50
2023-08-09T00:03:34.504Z,18.04
2023-08-09T00:06:01.039Z,18.66
2023-08-09T00:08:27.563Z,18.76
2023-08-09T00:10:53.966Z,18.65
2023-08-09T00:13:20.428Z,18.68
2023-08-09T00:15:46.973Z,17.97
2023-08-09T00:18:13.505Z,17.93
2023-08-09T00:20:39.886Z,17.97
2023-08-09T00:23:06.438Z,18.57
2023-08-09T00:25:33.090Z,18.58
2023-08-09T00:27:59.528Z,18.46
2023-08-09T00:30:26.250Z,18.45
2023-08-09T00:32:53.956Z,18.57
2023-08-09T00:35:20.380Z,18.47
2023-08-09T00:37:46.774Z,18.02
2023-08-09T00:40:13.372Z,18.45
2023-08-09T00:42:43.529Z,18.13
2023-08-09T00:45:10.575Z,18.84
2023-08-09T00:47:37.458Z,18.78
2023-08-09T00:50:05.332Z,18.51
2023-08-09T00:52:32.136Z,18.58
2023-08-09T00:55:00.422Z,18.09
2023-08-09T00:57:27.232Z,17.96
2023-08-09T00:59:53.949Z,18.44
2023-08-09T01:02:20.564Z,18.09
2023-08-09T01:04:47.184Z,18.09
2023-08-09T01:07:28.769Z,18.85
2023-08-09T01:10:02.408Z,18.19
2023-08-09T01:12:30.691Z,17.75
2023-08-09T01:15:03.724Z,18.35
2023-08-09T01:17:32.375Z,18.28
2023-08-09T01:20:00.465Z,17.77
2023-08-09T01:22:39.004Z,18.20
2023-08-09T01:25:08.064Z,17.86
2023-08-09T01:27:36.739Z,17.53
2023-08-09T01:30:05.658Z,18.26
2023-08-09T01:32:32.739Z,18.06
2023-08-09T01:35:00.015Z,17.98
2023-08-09T01:37:47.244Z,18.21
2023-08-09T01:40:16.930Z,18.07
2023-08-09T01:42:44.275Z,18.10
2023-08-09T01:45:13.128Z,18.16
2023-08-09T01:47:41.659Z,17.61
2023-08-09T01:50:18.708Z,18.21
2023-08-09T01:52:45.159Z,17.84
2023-08-09T01:55:18.728Z,17.90
2023-08-09T01:57:49.369Z,18.13
2023-08-09T02:00:19.362Z,17.67
2023-08-09T02:02:46.845Z,17.94
2023-08-09T02:05:13.412Z,18.05
2023-08-09T02:07:40.983Z,17.78
2023-08-09T02:10:09.028Z,18.19
2023-08-09T02:12:35.860Z,18.00
2023-08-09T02:15:02.294Z,18.14
2023-08-09T02:17:28.780Z,17.75
2023-08-09T02:19:55.286Z,17.90
2023-08-09T02:22:21.815Z,17.97
2023-08-09T02:24:48.248Z,18.01
2023-08-09T02:27:14.663Z,17.92
2023-08-09T02:29:41.091Z,17.96
2023-08-09T02:32:07.844Z,17.95
2023-08-09T02:34:34.271Z,17.93
2023-08-09T02:37:00.998Z,17.55
2023-08-09T02:39:27.671Z,17.82
2023-08-09T02:41:54.112Z,17.88
2023-08-09T02:44:20.624Z,17.45
2023-08-09T02:46:47.063Z,17.37
2023-08-09T02:49:13.574Z,17.86
2023-08-09T02:51:40.242Z,17.85
2023-08-09T02:54:07.250Z,18.06
2023-08-09T02:56:34.713Z,17.97
2023-08-09T02:59:01.282Z,17.93
2023-08-09T03:01:28.005Z,18.07
2023-08-09T03:03:55.715Z,17.57
2023-08-09T03:06:23.310Z,18.03
2023-08-09T03:08:52.113Z,17.99
2023-08-09T03:11:24.062Z,18.04
2023-08-09T03:13:51.594Z,18.08
2023-08-09T03:16:18.395Z,18.00
2023-08-09T03:18:44.838Z,17.63
2023-08-09T03:21:11.442Z,17.85
2023-08-09T03:23:37.871Z,17.91
2023-08-09T03:26:05.289Z,18.10
2023-08-09T03:28:33.664Z,17.99
2023-08-09T03:31:00.200Z,17.93
2023-08-09T03:33:28.378Z,18.04
2023-08-09T03:35:54.908Z,17.47
2023-08-09T03:38:21.380Z,17.58
2023-08-09T03:40:47.898Z,17.30
2023-08-09T03:43:14.355Z,17.44
2023-08-09T03:45:40.837Z,17.47
2023-08-09T03:48:07.459Z,17.59
2023-08-09T03:50:33.988Z,17.44
2023-08-09T03:53:00.722Z,18.09
2023-08-09T03:55:27.305Z,17.96
2023-08-09T03:57:53.764Z,17.49
2023-08-09T04:00:23.557Z,17.63
2023-08-09T04:06:03.972Z,18.19
2023-08-09T04:08:31.519Z,17.64
2023-08-09T04:10:58.149Z,17.94
2023-08-09T04:13:25.109Z,17.68
2023-08-09T04:15:51.601Z,17.34
2023-08-09T04:18:18.308Z,17.54
2023-08-09T04:20:46.514Z,17.76
2023-08-09T04:23:13.817Z,18.04
2023-08-09T04:25:40.554Z,17.54
2023-08-09T04:28:10.506Z,17.85
2023-08-09T04:30:38.297Z,17.70
2023-08-09T04:33:05.312Z,17.42
2023-08-09T04:35:32.834Z,17.79
2023-08-09T04:37:59.276Z,17.44
2023-08-09T04:40:30.416Z,17.25
2023-08-09T04:42:56.934Z,17.82
2023-08-09T04:45:23.621Z,17.39
2023-08-09T04:47:53.370Z,17.83
2023-08-09T04:50:23.057Z,17.14
2023-08-09T04:52:50.010Z,17.85
2023-08-09T04:55:21.267Z,17.57
2023-08-09T04:57:48.298Z,17.52
2023-08-09T05:00:15.320Z,17.67
2023-08-09T05:02:42.001Z,17.78
2023-08-09T05:05:09.638Z,17.61
2023-08-09T05:07:37.573Z,17.60
2023-08-09T05:10:05.714Z,17.80
2023-08-09T05:12:32.345Z,18.16
2023-08-09T05:14:59.157Z,17.85
2023-08-09T05:17:28.001Z,18.07
2023-08-09T05:19:54.514Z,17.68
2023-08-09T05:22:21.035Z,17.86
2023-08-09T05:24:47.489Z,17.61
2023-08-09T05:27:13.961Z,17.91
2023-08-09T05:29:40.424Z,17.78
2023-08-09T05:32:06.983Z,17.65
2023-08-09T05:34:33.712Z,17.94
2023-08-09T05:37:00.476Z,17.82
2023-08-09T05:39:27.850Z,17.94
2023-08-09T05:41:54.412Z,17.83
2023-08-09T05:44:21.060Z,18.46
2023-08-09T05:46:47.743Z,17.81
2023-08-09T05:49:14.310Z,18.16
2023-08-09T05:51:40.837Z,18.36
2023-08-09T05:54:08.193Z,18.45
2023-08-09T05:56:34.629Z,18.20
2023-08-09T05:59:01.478Z,18.11
2023-08-09T06:01:29.753Z,18.09
2023-08-09T06:03:58.574Z,18.27
2023-08-09T06:06:25.215Z,18.40
2023-08-09T06:08:51.925Z,18.39
2023-08-09T06:11:18.934Z,18.29
2023-08-09T06:13:45.386Z,18.52
2023-08-09T06:16:11.932Z,18.34
2023-08-09T06:18:38.648Z,18.25
2023-08-09T06:21:05.873Z,18.44
2023-08-09T06:23:32.471Z,18.07
2023-08-09T06:25:59.542Z,17.91
2023-08-09T06:28:26.298Z,18.50
2023-08-09T06:30:52.892Z,18.28
2023-08-09T06:33:19.730Z,18.23
2023-08-09T06:35:46.354Z,18.88
2023-08-09T06:38:15.645Z,18.10
2023-08-09T06:40:42.763Z,18.48
2023-08-09T06:43:09.208Z,18.88
2023-08-09T06:45:35.758Z,18.77
2023-08-09T06:48:02.518Z,18.28
2023-08-09T06:50:29.266Z,19.22
2023-08-09T06:52:55.800Z,18.38
2023-08-09T06:55:22.341Z,19.06
2023-08-09T06:57:48.847Z,19.15
2023-08-09T07:00:18.648Z,18.56
2023-08-09T07:02:49.033Z,19.04
2023-08-09T07:05:16.668Z,18.80
2023-08-09T07:07:44.937Z,18.95
2023-08-09T07:10:12.665Z,19.28
2023-08-09T07:12:39.609Z,19.04
2023-08-09T07:15:09.398Z,18.78
2023-08-09T07:17:37.022Z,18.86
2023-08-09T07:20:15.310Z,19.06
2023-08-09T07:22:43.443Z,18.65
2023-08-09T07:25:10.543Z,18.43
2023-08-09T07:27:46.726Z,19.31
2023-08-09T07:30:15.479Z,18.84
2023-08-09T07:32:42.579Z,19.51
2023-08-09T07:35:10.829Z,19.50
2023-08-09T07:37:41.352Z,19.60
2023-08-09T07:40:09.501Z,19.93
2023-08-09T07:42:36.629Z,19.98
2023-08-09T07:45:04.543Z,19.72
2023-08-09T07:47:31.104Z,19.98
2023-08-09T07:49:57.615Z,20.12
2023-08-09T07:52:24.222Z,20.20
2023-08-09T07:54:50.678Z,19.94
2023-08-09T07:57:17.082Z,20.12
2023-08-09T07:59:44.862Z,19.71
2023-08-09T08:02:11.409Z,20.25
2023-08-09T08:04:37.796Z,20.21
2023-08-09T08:07:06.937Z,20.21
2023-08-09T08:09:36.398Z,20.13
2023-08-09T08:12:09.225Z,20.38
2023-08-09T08:14:40.295Z,19.40
2023-08-09T08:17:06.944Z,20.14
2023-08-09T08:19:33.460Z,19.47
2023-08-09T08:21:59.828Z,19.73
2023-08-09T08:24:26.237Z,20.37
2023-08-09T08:26:56.043Z,20.08
2023-08-09T08:29:23.917Z,20.22
2023-08-09T08:31:52.188Z,20.34
2023-08-09T08:34:24.769Z,20.30
2023-08-09T08:36:51.469Z,20.26
2023-08-09T08:39:21.154Z,20.28
2023-08-09T08:41:50.432Z,20.02
2023-08-09T08:44:17.539Z,20.56
2023-08-09T08:46:44.905Z,20.57
2023-08-09T08:49:15.524Z,20.80
2023-08-09T08:51:43.995Z,20.71
2023-08-09T08:54:11.321Z,20.66
2023-08-09T08:56:37.747Z,20.92
2023-08-09T08:59:04.660Z,21.11
2023-08-09T09:01:33.280Z,20.59
2023-08-09T09:03:59.833Z,21.03
2023-08-09T09:06:26.288Z,21.38
2023-08-09T09:09:00.695Z,21.57
2023-08-09T09:11:27.210Z,21.08
2023-08-09T09:13:53.753Z,21.47
2023-08-09T09:16:21.981Z,21.77
2023-08-09T09:18:50.034Z,21.80
2023-08-09T09:21:18.101Z,21.58
2023-08-09T09:23:45.525Z,21.99
2023-08-09T09:26:19.117Z,22.20
2023-08-09T09:28:47.024Z,22.04
2023-08-09T09:31:15.218Z,22.25
2023-08-09T09:33:46.000Z,22.18
2023-08-09T09:36:13.970Z,22.34
2023-08-09T09:38:42.387Z,22.40
2023-08-09T09:41:10.072Z,22.78
2023-08-09T09:43:42.933Z,22.78
2023-08-09T09:46:34.099Z,22.72
2023-08-09T09:49:04.404Z,22.71
2023-08-09T09:51:31.312Z,22.52
2023-08-09T09:53:57.803Z,22.46
2023-08-09T09:56:24.319Z,22.38
2023-08-09T09:58:50.759Z,22.55
2023-08-09T10:01:21.795Z,22.86
2023-08-09T10:03:53.431Z,22.48
2023-08-09T10:06:26.141Z,22.36
2023-08-09T10:08:53.447Z,22.21
2023-08-09T10:11:22.793Z,22.40
2023-08-09T10:13:50.048Z,22.02
2023-08-09T10:16:18.304Z,22.40
2023-08-09T10:18:48.149Z,22.56
2023-08-09T10:21:17.582Z,22.27
2023-08-09T10:24:09.777Z,22.65
2023-08-09T10:26:41.314Z,22.89
2023-08-09T10:29:16.178Z,22.62
2023-08-09T10:31:57.095Z,22.80
2023-08-09T10:34:39.010Z,22.91
2023-08-09T10:37:07.234Z,22.42
2023-08-09T10:39:35.231Z,22.64
2023-08-09T10:42:06.469Z,22.94
2023-08-09T10:44:42.738Z,23.25
2023-08-09T10:47:14.896Z,23.47
2023-08-09T10:49:50.572Z,23.46
2023-08-09T10:52:21.296Z,23.18
2023-08-09T10:54:51.254Z,23.46
2023-08-09T10:57:17.690Z,23.38
2023-08-09T10:59:44.937Z,23.37
2023-08-09T11:02:11.437Z,23.43
2023-08-09T11:04:38.769Z,23.57
2023-08-09T11:07:08.007Z,23.19
2023-08-09T11:09:34.424Z,23.88
2023-08-09T11:12:01.274Z,23.49
2023-08-09T11:14:31.093Z,23.70
2023-08-09T11:17:02.379Z,24.04
2023-08-09T11:19:35.659Z,24.06
2023-08-09T11:22:03.515Z,23.80
2023-08-09T11:24:30.796Z,23.91
2023-08-09T11:26:59.423Z,23.92
2023-08-09T11:29:27.685Z,24.07
2023-08-09T11:31:56.328Z,24.18
2023-08-09T11:34:25.106Z,24.03
2023-08-09T11:36:55.957Z,24.63
2023-08-09T11:39:24.966Z,24.12
2023-08-09T11:41:52.071Z,24.73
2023-08-09T11:44:22.368Z,24.75
2023-08-09T11:46:53.160Z,25.03
2023-08-09T11:49:24.874Z,24.71
2023-08-09T11:51:51.273Z,24.53
2023-08-09T11:54:17.695Z,24.50
2023-08-09T11:56:44.310Z,24.18
2023-08-09T11:59:13.165Z,24.01
2023-08-09T12:01:40.507Z,23.84
2023-08-09T12:04:14.781Z,23.76
2023-08-09T12:06:45.739Z,23.91
2023-08-09T12:09:31.207Z,24.15
2023-08-09T12:12:18.868Z,23.98
2023-08-09T12:14:48.176Z,23.77
2023-08-09T12:17:24.223Z,23.88
2023-08-09T12:19:52.755Z,23.89
2023-08-09T12:22:19.281Z,24.13
2023-08-09T12:24:45.670Z,24.13
2023-08-09T12:27:12.158Z,24.02
2023-08-09T12:29:38.703Z,24.47
2023-08-09T12:32:05.861Z,24.66
2023-08-09T12:34:32.519Z,24.81
2023-08-09T12:36:59.641Z,24.74
2023-08-09T12:39:27.358Z,24.74
2023-08-09T12:41:54.177Z,24.79
2023-08-09T12:44:20.643Z,25.02
2023-08-09T12:46:47.032Z,25.30
2023-08-09T12:49:13.540Z,25.59
2023-08-09T12:51:40.051Z,25.50
2023-08-09T12:54:07.174Z,25.56
2023-08-09T12:56:33.956Z,25.24
2023-08-09T12:59:01.068Z,25.05
2023-08-09T13:01:28.346Z,24.74
2023-08-09T13:03:54.880Z,24.88
2023-08-09T13:06:21.455Z,25.06
2023-08-09T13:08:49.350Z,25.45
2023-08-09T13:11:15.981Z,25.49
2023-08-09T13:13:42.399Z,25.71
2023-08-09T13:16:09.346Z,25.98
2023-08-09T13:18:37.181Z,24.98
2023-08-09T13:21:04.897Z,25.48
2023-08-09T13:23:32.284Z,25.17
2023-08-09T13:25:59.111Z,25.05
2023-08-09T13:28:28.328Z,25.11
2023-08-09T13:30:55.831Z,25.70
2023-08-09T13:33:22.376Z,25.78
2023-08-09T13:35:51.035Z,25.45
2023-08-09T13:38:35.296Z,25.14
2023-08-09T13:41:02.664Z,25.69
2023-08-09T13:43:29.114Z,26.19
2023-08-09T13:45:55.777Z,25.77
2023-08-09T13:48:22.291Z,26.37
2023-08-09T13:50:50.397Z,26.42
2023-08-09T13:53:17.961Z,26.48
2023-08-09T13:55:46.088Z,26.11
2023-08-09T13:58:13.427Z,25.98
2023-08-09T14:00:40.298Z,25.03
2023-08-09T14:03:07.293Z,25.78
2023-08-09T14:05:34.301Z,26.19
2023-08-09T14:08:03.202Z,25.95
2023-08-09T14:10:29.904Z,25.72
2023-08-09T14:12:58.341Z,26.60
2023-08-09T14:15:24.921Z,26.21
2023-08-09T14:17:52.369Z,26.35
2023-08-09T14:20:20.686Z,26.33
2023-08-09T14:22:54.700Z,26.56
2023-08-09T14:25:27.032Z,26.44
2023-08-09T14:27:53.500Z,26.43
2023-08-09T14:30:20.575Z,26.73
2023-08-09T14:32:47.210Z,27.39
2023-08-09T14:35:14.091Z,27.06
2023-08-09T14:37:42.566Z,26.74
2023-08-09T14:40:10.843Z,27.00
2023-08-09T14:42:39.824Z,26.93
2023-08-09T14:45:08.836Z,27.16
2023-08-09T14:47:35.778Z,27.03
2023-08-09T14:50:02.250Z,26.63
2023-08-09T14:52:29.158Z,27.30
2023-08-09T14:54:55.774Z,27.37
2023-08-09T14:57:22.451Z,27.13
2023-08-09T14:59:49.532Z,27.72
2023-08-09T15:02:17.715Z,27.91
2023-08-09T15:04:45.238Z,27.78
2023-08-09T15:07:11.742Z,27.75
2023-08-09T15:09:38.273Z,27.11
2023-08-09T15:12:06.754Z,27.59
2023-08-09T15:14:36.222Z,27.15
2023-08-09T15:17:21.676Z,27.29
2023-08-09T15:19:52.134Z,27.37
2023-08-09T15:22:23.563Z,27.17
2023-08-09T15:24:50.379Z,27.05
2023-08-09T15:27:18.908Z,26.95
2023-08-09T15:29:45.392Z,27.14
2023-08-09T15:32:11.806Z,27.32
2023-08-09T15:34:38.236Z,26.97
2023-08-09T15:37:08.188Z,27.17
2023-08-09T15:39:43.461Z,26.10
2023-08-09T15:42:18.404Z,26.89
2023-08-09T15:44:47.116Z,26.78
2023-08-09T15:47:18.087Z,26.27
2023-08-09T15:49:44.821Z,26.35
2023-08-09T15:52:11.437Z,26.50
2023-08-09T15:54:37.930Z,26.42
2023-08-09T15:57:06.173Z,26.69
2023-08-09T15:59:32.822Z,26.62
2023-08-09T16:01:59.296Z,26.70
2023-08-09T16:04:25.764Z,26.37
2023-08-09T16:06:52.420Z,26.50
2023-08-09T16:09:21.309Z,26.92
2023-08-09T16:11:49.957Z,26.87
2023-08-09T16:14:16.436Z,26.37
2023-08-09T16:16:43.860Z,27.59
2023-08-09T16:19:13.186Z,27.04
2023-08-09T16:21:40.337Z,27.34
2023-08-09T16:24:07.308Z,27.09
2023-08-09T16:26:36.722Z,26.99
2023-08-09T16:29:04.891Z,26.85
2023-08-09T16:31:32.543Z,26.37
2023-08-09T16:33:59.089Z,25.49
2023-08-09T16:36:25.626Z,25.82
2023-08-09T16:38:52.237Z,25.70
2023-08-09T16:41:21.193Z,25.53
2023-08-09T16:43:48.121Z,25.79
2023-08-09T16:46:14.672Z,24.87
2023-08-09T16:48:41.451Z,25.11
2023-08-09T16:51:08.120Z,25.77
2023-08-09T16:53:34.639Z,25.96
2023-08-09T16:56:01.059Z,25.48
2023-08-09T16:58:27.786Z,25.85
2023-08-09T17:00:54.196Z,25.47
2023-08-09T17:03:20.846Z,25.93
2023-08-09T17:05:47.484Z,25.79
2023-08-09T17:08:15.754Z,25.52
2023-08-09T17:10:42.908Z,25.07
2023-08-09T17:13:11.468Z,25.57
2023-08-09T17:15:38.627Z,25.43
2023-08-09T17:18:06.730Z,25.53
2023-08-09T17:20:34.862Z,25.59
2023-08-09T17:23:02.499Z,25.27
2023-08-09T17:25:29.939Z,25.41
2023-08-09T17:27:56.561Z,25.24
2023-08-09T17:30:23.146Z,25.13
2023-08-09T17:32:49.601Z,24.76
2023-08-09T17:35:18.323Z,25.07
2023-08-09T17:37:44.912Z,25.48
2023-08-09T17:40:11.810Z,24.88
2023-08-09T17:42:39.466Z,25.60
2023-08-09T17:45:09.009Z,24.93
2023-08-09T17:47:35.449Z,25.38
2023-08-09T17:50:01.968Z,25.50
2023-08-09T17:52:28.889Z,25.36
2023-08-09T17:54:56.054Z,25.23
2023-08-09T17:57:22.511Z,24.74
2023-08-09T17:59:49.072Z,24.80
2023-08-09T18:02:15.483Z,25.09
2023-08-09T18:04:42.014Z,24.77
2023-08-09T18:07:08.442Z,24.92
2023-08-09T18:09:34.981Z,24.77
2023-08-09T18:12:01.578Z,24.29
2023-08-09T18:14:32.033Z,24.62
2023-08-09T18:16:58.782Z,24.33
2023-08-09T18:19:25.204Z,24.10
2023-08-09T18:21:51.590Z,24.12
2023-08-09T18:24:17.983Z,24.38
2023-08-09T18:26:44.449Z,24.16
2023-08-09T18:29:11.258Z,24.25
2023-08-09T18:31:37.748Z,24.16
2023-08-09T18:34:04.430Z,24.46
2023-08-09T18:36:30.909Z,24.30
2023-08-09T18:38:57.286Z,24.22
2023-08-09T18:41:23.740Z,23.83
2023-08-09T18:43:51.134Z,24.23
2023-08-09T18:46:17.603Z,23.71
2023-08-09T18:48:44.023Z,24.06
2023-08-09T18:51:10.408Z,24.08
2023-08-09T18:53:36.928Z,23.93
2023-08-09T18:56:03.448Z,24.01
2023-08-09T18:58:29.814Z,23.85
2023-08-09T19:00:57.318Z,24.12
2023-08-09T19:03:23.800Z,24.21
2023-08-09T19:05:50.224Z,23.53
2023-08-09T19:08:16.804Z,23.83
2023-08-09T19:10:43.210Z,23.50
2023-08-09T19:13:09.683Z,23.78
2023-08-09T19:15:38.891Z,23.91
2023-08-09T19:18:08.971Z,23.16
2023-08-09T19:20:35.479Z,23.52
2023-08-09T19:23:02.198Z,22.96
2023-08-09T19:25:30.097Z,23.35
2023-08-09T19:27:56.631Z,23.21
2023-08-09T19:30:23.063Z,23.13
2023-08-09T19:32:50.661Z,23.28
2023-08-09T19:35:17.796Z,23.35
2023-08-09T19:37:44.655Z,23.28
2023-08-09T19:40:11.852Z,23.50
2023-08-09T19:42:39.195Z,23.58
2023-08-09T19:45:06.105Z,23.66
2023-08-09T19:47:32.973Z,23.75
2023-08-09T19:49:59.613Z,23.62
2023-08-09T19:52:26.177Z,23.71
2023-08-09T19:54:52.788Z,23.00
2023-08-09T19:57:19.250Z,22.90
2023-08-09T19:59:45.771Z,22.83
2023-08-09T20:02:12.255Z,22.57
2023-08-09T20:04:39.163Z,23.13
2023-08-09T20:07:05.964Z,23.28
2023-08-09T20:09:33.045Z,23.08
2023-08-09T20:11:59.736Z,23.03
2023-08-09T20:14:26.117Z,23.06
2023-08-09T20:16:52.588Z,22.84
2023-08-09T20:19:19.494Z,22.94
2023-08-09T20:21:45.953Z,22.92
2023-08-09T20:24:33.255Z,22.82
2023-08-09T20:26:59.792Z,22.67
2023-08-09T20:29:26.161Z,22.56
2023-08-09T20:31:52.629Z,22.50
2023-08-09T20:34:19.135Z,22.09
2023-08-09T20:36:45.621Z,22.59
2023-08-09T20:39:12.036Z,22.53
2023-08-09T20:41:38.476Z,22.37
2023-08-09T20:44:05.773Z,22.32
2023-08-09T20:46:32.259Z,22.36
2023-08-09T20:48:58.690Z,22.18
2023-08-09T20:51:25.088Z,21.89
2023-08-09T20:53:51.579Z,21.89
2023-08-09T20:56:18.742Z,21.96
2023-08-09T20:58:45.989Z,22.10
2023-08-09T21:01:13.857Z,22.25
2023-08-09T21:03:40.498Z,22.45
2023-08-09T21:06:07.260Z,22.34
2023-08-09T21:08:33.717Z,22.15
2023-08-09T21:11:00.302Z,22.18
2023-08-09T21:13:26.731Z,22.09
2023-08-09T21:15:53.147Z,21.94
2023-08-09T21:18:19.792Z,22.49
2023-08-09T21:20:46.420Z,22.70
2023-08-09T21:23:12.872Z,22.37
2023-08-09T21:28:11.782Z,22.78
2023-08-09T21:30:39.261Z,22.59
2023-08-09T21:33:08.877Z,22.01
2023-08-09T21:35:35.449Z,21.62
2023-08-09T21:38:02.021Z,22.13
2023-08-09T21:40:28.588Z,22.11
2023-08-09T21:42:55.045Z,22.15
2023-08-09T21:45:21.473Z,21.94
2023-08-09T21:47:47.919Z,21.87
2023-08-09T21:50:14.449Z,21.86
2023-08-09T21:52:40.876Z,21.81
2023-08-09T21:55:07.583Z,21.74
2023-08-09T21:57:33.984Z,21.72
2023-08-09T22:00:00.390Z,21.39
2023-08-09T22:02:26.859Z,21.46
2023-08-09T22:04:54.073Z,21.66
2023-08-09T22:07:20.544Z,21.58
2023-08-09T22:09:46.999Z,21.38
2023-08-09T22:12:13.444Z,21.59
2023-08-09T22:14:39.960Z,21.09
2023-08-09T22:17:06.560Z,20.66
2023-08-09T22:19:32.948Z,20.59
2023-08-09T22:24:31.483Z,20.31
2023-08-09T22:26:58.914Z,20.56
2023-08-09T22:29:25.291Z,20.45
2023-08-09T22:31:52.838Z,20.79
2023-08-09T22:34:22.965Z,21.08
2023-08-09T22:36:49.413Z,20.86
2023-08-09T22:39:15.792Z,20.99
2023-08-09T22:41:42.192Z,20.99
2023-08-09T22:44:08.617Z,20.93
2023-08-09T22:46:35.078Z,20.73
2023-08-09T22:49:01.457Z,20.42
2023-08-09T22:51:27.958Z,20.21
2023-08-09T22:53:54.637Z,19.92
2023-08-09T22:56:21.067Z,20.50
2023-08-09T22:58:47.562Z,20.41
2023-08-09T23:01:14.056Z,19.94
2023-08-09T23:03:40.505Z,20.58
2023-08-09T23:06:07.658Z,20.60
2023-08-09T23:08:34.748Z,20.67
2023-08-09T23:11:06.157Z,20.62
2023-08-09T23:13:32.671Z,20.59
2023-08-09T23:15:59.270Z,20.46
2023-08-09T23:18:25.719Z,20.45
2023-08-09T23:20:52.677Z,20.17
2023-08-09T23:23:19.080Z,19.92
2023-08-09T23:25:45.526Z,19.84
2023-08-09T23:28:11.901Z,20.18
2023-08-09T23:30:38.500Z,20.16
2023-08-09T23:33:06.279Z,19.59
2023-08-09T23:35:33.511Z,20.03
2023-08-09T23:38:00.401Z,20.10
2023-08-09T23:40:27.300Z,20.02
2023-08-09T23:42:53.764Z,19.93
2023-08-09T23:45:20.336Z,19.66
2023-08-09T23:47:46.887Z,19.80
2023-08-09T23:50:13.340Z,19.84
2023-08-09T23:52:39.894Z,20.11
2023-08-09T23:55:07.094Z,19.95
2023-08-09T23:57:33.688Z,20.04
